createdAt,value
2022-11-24T00:01:26.624Z,3.67
2022-11-24T00:04:01.324Z,3.70
2022-11-24T00:06:31.306Z,3.73
2022-11-24T00:08:59.434Z,3.73
2022-11-24T00:11:34.061Z,3.71
2022-11-24T00:14:03.928Z,3.69
2022-11-24T00:16:35.430Z,3.68
2022-11-24T00:19:08.589Z,3.66
2022-11-24T00:21:37.864Z,3.64
2022-11-24T00:24:07.818Z,3.62
2022-11-24T00:26:39.454Z,3.61
2022-11-24T00:29:10.036Z,3.59
2022-11-24T00:31:41.330Z,3.58
2022-11-24T00:34:14.525Z,3.58
2022-11-24T00:36:42.670Z,3.59
2022-11-24T00:39:15.426Z,3.60
2022-11-24T00:41:46.218Z,3.62
2022-11-24T00:44:14.281Z,3.62
2022-11-24T00:46:42.244Z,3.63
2022-11-24T00:49:09.946Z,3.64
2022-11-24T00:51:51.319Z,3.65
2022-11-24T00:54:51.827Z,3.67
2022-11-24T00:57:41.008Z,3.69
2022-11-24T01:00:09.170Z,3.71
2022-11-24T01:02:37.026Z,3.73
2022-11-24T01:05:05.122Z,3.75
2022-11-24T01:07:33.019Z,3.77
2022-11-24T01:10:01.497Z,3.79
2022-11-24T01:12:29.501Z,3.81
2022-11-24T01:14:58.587Z,3.82
2022-11-24T01:17:26.708Z,3.83
2022-11-24T01:19:54.288Z,3.84
2022-11-24T01:22:22.076Z,3.87
2022-11-24T01:24:49.878Z,3.87
2022-11-24T01:27:17.491Z,3.88
2022-11-24T01:29:44.994Z,3.88
2022-11-24T01:32:12.711Z,3.90
2022-11-24T01:34:40.778Z,3.92
2022-11-24T01:37:08.495Z,3.92
2022-11-24T01:39:36.274Z,3.95
2022-11-24T01:42:04.202Z,3.95
2022-11-24T01:44:33.442Z,3.97
2022-11-24T01:47:26.147Z,3.98
2022-11-24T01:49:58.065Z,3.99
2022-11-24T01:52:36.868Z,3.99
2022-11-24T01:55:08.996Z,3.98
2022-11-24T01:57:48.013Z,3.98
2022-11-24T02:00:18.274Z,3.99
2022-11-24T02:02:46.217Z,4.01
2022-11-24T02:05:28.712Z,4.00
2022-11-24T02:08:00.745Z,4.00
2022-11-24T02:10:29.976Z,4.01
2022-11-24T02:13:00.181Z,4.00
2022-11-24T02:15:29.198Z,3.98
2022-11-24T02:17:58.821Z,3.95
2022-11-24T02:20:26.803Z,3.94
2022-11-24T02:23:15.167Z,3.91
2022-11-24T02:25:48.319Z,3.94
2022-11-24T02:28:19.981Z,3.96
2022-11-24T02:30:49.321Z,3.97
2022-11-24T02:33:17.357Z,3.98
2022-11-24T02:35:45.061Z,3.98
2022-11-24T02:38:14.118Z,3.98
2022-11-24T02:40:47.106Z,3.98
2022-11-24T02:43:19.652Z,4.00
2022-11-24T02:45:47.409Z,4.01
2022-11-24T02:48:16.312Z,4.04
2022-11-24T02:50:43.974Z,4.06
2022-11-24T02:53:11.683Z,4.08
2022-11-24T02:55:39.554Z,4.11
2022-11-24T02:58:07.442Z,4.13
2022-11-24T03:00:35.079Z,4.15
2022-11-24T03:03:03.745Z,4.17
2022-11-24T03:05:31.771Z,4.20
2022-11-24T03:07:59.441Z,4.22
2022-11-24T03:10:28.076Z,4.25
2022-11-24T03:12:55.847Z,4.25
2022-11-24T03:15:23.474Z,4.28
2022-11-24T03:17:54.026Z,4.29
2022-11-24T03:20:21.718Z,4.31
2022-11-24T03:22:49.553Z,4.33
2022-11-24T03:25:17.685Z,4.36
2022-11-24T03:27:46.390Z,4.40
2022-11-24T03:30:15.138Z,4.41
2022-11-24T03:32:43.063Z,4.44
2022-11-24T03:35:11.587Z,4.46
2022-11-24T03:37:39.225Z,4.47
2022-11-24T03:40:07.701Z,4.49
2022-11-24T03:42:35.385Z,4.51
2022-11-24T03:45:29.751Z,4.53
2022-11-24T03:47:33.014Z,4.55
2022-11-24T03:50:00.501Z,4.55
2022-11-24T03:52:28.304Z,4.57
2022-11-24T03:54:56.059Z,4.59
2022-11-24T03:57:23.804Z,4.61
2022-11-24T03:59:51.501Z,4.63
2022-11-24T04:02:19.469Z,4.65
2022-11-24T04:04:49.902Z,4.67
2022-11-24T04:07:18.117Z,4.69
2022-11-24T04:09:46.174Z,4.69
2022-11-24T04:12:32.146Z,4.71
2022-11-24T04:14:59.434Z,4.71
2022-11-24T04:17:27.823Z,4.69
2022-11-24T04:19:55.628Z,4.69
2022-11-24T04:22:23.252Z,4.68
2022-11-24T04:24:50.780Z,4.68
2022-11-24T04:27:18.634Z,4.69
2022-11-24T04:29:48.388Z,4.69
2022-11-24T04:32:16.836Z,4.71
2022-11-24T04:34:44.807Z,4.71
2022-11-24T04:37:12.805Z,4.73
2022-11-24T04:39:40.449Z,4.76
2022-11-24T04:42:08.443Z,4.77
2022-11-24T04:44:36.759Z,4.78
2022-11-24T04:47:05.122Z,4.80
2022-11-24T04:49:33.095Z,4.83
2022-11-24T04:52:00.785Z,4.85
2022-11-24T04:54:28.707Z,4.85
2022-11-24T04:56:56.493Z,4.87
2022-11-24T04:59:24.237Z,4.86
2022-11-24T05:01:52.134Z,4.87
2022-11-24T05:04:20.838Z,4.84
2022-11-24T05:06:48.592Z,4.84
2022-11-24T05:09:17.503Z,4.82
2022-11-24T05:11:45.442Z,4.79
2022-11-24T05:14:13.170Z,4.74
2022-11-24T05:16:41.140Z,4.71
2022-11-24T05:19:09.368Z,4.69
2022-11-24T05:21:37.828Z,4.67
2022-11-24T05:24:06.167Z,4.66
2022-11-24T05:26:35.178Z,4.65
2022-11-24T05:29:05.836Z,4.64
2022-11-24T05:31:33.700Z,4.63
2022-11-24T05:34:01.450Z,4.64
2022-11-24T05:36:47.601Z,4.64
2022-11-24T05:39:15.386Z,4.64
2022-11-24T05:41:42.885Z,4.65
2022-11-24T05:44:10.784Z,4.65
2022-11-24T05:46:38.619Z,4.66
2022-11-24T05:49:06.445Z,4.67
2022-11-24T05:51:34.310Z,4.69
2022-11-24T05:54:02.068Z,4.70
2022-11-24T05:56:29.893Z,4.72
2022-11-24T05:58:57.676Z,4.75
2022-11-24T06:01:25.361Z,4.76
2022-11-24T06:03:52.867Z,4.78
2022-11-24T06:06:20.720Z,4.81
2022-11-24T06:08:48.530Z,4.83
2022-11-24T06:11:19.327Z,4.87
2022-11-24T06:13:48.190Z,4.88
2022-11-24T06:16:16.027Z,4.91
2022-11-24T06:18:43.648Z,4.94
2022-11-24T06:21:12.250Z,4.96
2022-11-24T06:23:41.149Z,4.99
2022-11-24T06:26:09.454Z,5.01
2022-11-24T06:28:37.513Z,5.05
2022-11-24T06:31:06.139Z,5.09
2022-11-24T06:33:37.256Z,5.13
2022-11-24T06:36:09.381Z,5.18
2022-11-24T06:38:37.195Z,5.23
2022-11-24T06:41:08.806Z,5.28
2022-11-24T06:43:36.634Z,5.32
2022-11-24T06:46:04.741Z,5.36
2022-11-24T06:48:33.190Z,5.38
2022-11-24T06:51:05.236Z,5.45
2022-11-24T06:53:37.671Z,5.48
2022-11-24T06:56:15.265Z,5.50
2022-11-24T06:58:46.269Z,5.52
2022-11-24T07:01:15.994Z,5.53
2022-11-24T07:03:44.800Z,5.55
2022-11-24T07:06:12.584Z,5.53
2022-11-24T07:08:40.176Z,5.55
2022-11-24T07:11:11.983Z,5.57
2022-11-24T07:13:39.654Z,5.58
2022-11-24T07:16:17.637Z,5.59
2022-11-24T07:18:47.190Z,5.62
2022-11-24T07:21:15.859Z,5.64
2022-11-24T07:23:43.767Z,5.64
2022-11-24T07:26:11.642Z,5.64
2022-11-24T07:28:39.860Z,5.65
2022-11-24T07:31:16.745Z,5.65
2022-11-24T07:33:50.345Z,5.66
2022-11-24T07:36:18.191Z,5.68
2022-11-24T07:38:46.251Z,5.71
2022-11-24T07:41:16.927Z,5.74
2022-11-24T07:43:45.174Z,5.76
2022-11-24T07:46:15.989Z,5.81
2022-11-24T07:48:43.906Z,5.82
2022-11-24T07:51:12.066Z,5.85
2022-11-24T07:53:39.780Z,5.85
2022-11-24T07:56:09.429Z,5.81
2022-11-24T07:58:37.755Z,5.81
2022-11-24T08:01:17.255Z,5.78
2022-11-24T08:03:46.477Z,5.77
2022-11-24T08:06:38.675Z,5.73
2022-11-24T08:08:45.353Z,5.70
2022-11-24T08:11:18.293Z,5.70
2022-11-24T08:13:46.536Z,5.70
2022-11-24T08:16:17.428Z,5.70
2022-11-24T08:18:51.390Z,5.71
2022-11-24T08:21:19.842Z,5.72
2022-11-24T08:23:47.699Z,5.68
2022-11-24T08:26:18.829Z,5.67
2022-11-24T08:28:47.765Z,5.65
2022-11-24T08:31:20.675Z,5.67
2022-11-24T08:33:48.670Z,5.66
2022-11-24T08:36:18.433Z,5.64
2022-11-24T08:38:48.335Z,5.64
2022-11-24T08:41:17.432Z,5.65
2022-11-24T08:43:45.282Z,5.64
2022-11-24T08:46:16.564Z,5.64
2022-11-24T08:48:51.112Z,5.62
2022-11-24T08:51:23.177Z,5.64
2022-11-24T08:53:57.630Z,5.64
2022-11-24T08:56:27.881Z,5.62
2022-11-24T08:58:56.749Z,5.63
2022-11-24T09:01:25.721Z,5.63
2022-11-24T09:03:53.845Z,5.62
2022-11-24T09:06:25.726Z,5.61
2022-11-24T09:08:55.026Z,5.58
2022-11-24T09:11:24.018Z,5.54
2022-11-24T09:13:52.759Z,5.51
2022-11-24T09:16:28.339Z,5.47
2022-11-24T09:19:00.465Z,5.43
2022-11-24T09:21:30.105Z,5.38
2022-11-24T09:23:58.204Z,5.33
2022-11-24T09:26:29.724Z,5.31
2022-11-24T09:28:59.073Z,5.30
2022-11-24T09:31:31.775Z,5.29
2022-11-24T09:34:00.488Z,5.28
2022-11-24T09:36:28.789Z,5.26
2022-11-24T09:38:56.295Z,5.25
2022-11-24T09:41:48.181Z,5.22
2022-11-24T09:44:41.124Z,5.19
2022-11-24T09:47:14.201Z,5.15
2022-11-24T09:49:56.086Z,5.10
2022-11-24T09:52:50.043Z,5.09
2022-11-24T09:55:41.491Z,5.06
2022-11-24T09:58:44.337Z,5.01
2022-11-24T10:01:26.408Z,4.97
2022-11-24T10:03:55.281Z,4.92
2022-11-24T10:06:31.063Z,4.90
2022-11-24T10:09:36.658Z,4.89
2022-11-24T10:12:39.994Z,4.90
2022-11-24T10:15:42.447Z,4.89
2022-11-24T10:18:33.481Z,4.88
2022-11-24T10:21:27.231Z,4.89
2022-11-24T10:24:41.374Z,4.89
2022-11-24T10:27:42.761Z,4.89
2022-11-24T10:30:23.629Z,4.88
2022-11-24T10:33:05.328Z,4.88
2022-11-24T10:35:50.125Z,4.89
2022-11-24T10:38:30.534Z,4.90
2022-11-24T10:41:03.610Z,4.91
2022-11-24T10:43:31.789Z,4.83
2022-11-24T10:46:16.766Z,4.90
2022-11-24T10:49:01.995Z,4.92
2022-11-24T10:51:45.237Z,4.92
2022-11-24T10:54:20.717Z,4.93
2022-11-24T10:56:52.419Z,4.87
2022-11-24T10:59:28.146Z,4.97
2022-11-24T11:02:14.265Z,4.99
2022-11-24T11:04:45.108Z,5.01
2022-11-24T11:10:37.398Z,5.05
2022-11-24T11:13:31.916Z,5.05
2022-11-24T11:16:01.996Z,5.08
2022-11-24T11:18:33.798Z,5.09
2022-11-24T11:21:05.474Z,5.13
2022-11-24T11:23:36.008Z,5.14
2022-11-24T11:26:36.758Z,5.15
2022-11-24T11:34:39.936Z,5.14
2022-11-24T11:37:12.555Z,5.13
2022-11-24T11:39:49.062Z,5.12
2022-11-24T11:43:01.424Z,5.11
2022-11-24T11:45:28.910Z,5.09
2022-11-24T11:48:23.014Z,5.09
2022-11-24T11:53:54.813Z,5.09
2022-11-24T11:56:46.945Z,5.10
2022-11-24T11:59:37.371Z,5.08
2022-11-24T12:02:26.496Z,5.13
2022-11-24T12:05:18.188Z,5.09
2022-11-24T12:08:19.193Z,5.08
2022-11-24T12:11:00.655Z,5.07
2022-11-24T12:13:52.340Z,5.04
2022-11-24T12:16:56.423Z,5.05
2022-11-24T12:19:42.063Z,5.01
2022-11-24T12:22:39.550Z,4.94
2022-11-24T12:25:41.160Z,4.94
2022-11-24T12:28:37.950Z,4.90
2022-11-24T12:31:10.896Z,4.89
2022-11-24T12:34:06.120Z,4.87
2022-11-24T12:37:17.999Z,4.85
2022-11-24T12:40:16.076Z,4.85
2022-11-24T12:43:19.098Z,4.87
2022-11-24T12:46:17.430Z,4.87
2022-11-24T12:49:15.229Z,4.90
2022-11-24T12:51:48.870Z,4.92
2022-11-24T12:54:23.883Z,4.88
2022-11-24T12:57:16.054Z,4.77
2022-11-24T12:59:53.576Z,4.65
2022-11-24T13:02:58.052Z,4.52
2022-11-24T13:05:45.323Z,4.45
2022-11-24T13:08:17.471Z,4.36
2022-11-24T13:11:01.125Z,4.26
2022-11-24T13:13:16.777Z,4.23
2022-11-24T13:18:59.768Z,4.13
2022-11-24T13:21:50.428Z,4.12
2022-11-24T13:24:25.638Z,4.10
2022-11-24T13:27:19.324Z,4.10
2022-11-24T13:29:52.058Z,4.04
2022-11-24T13:32:25.574Z,4.01
2022-11-24T13:35:14.586Z,4.00
2022-11-24T13:37:54.988Z,3.97
2022-11-24T13:40:29.476Z,3.92
2022-11-24T13:43:03.165Z,3.87
2022-11-24T13:45:46.610Z,3.87
2022-11-24T13:48:31.852Z,3.84
2022-11-24T13:51:17.046Z,3.82
2022-11-24T13:53:50.810Z,3.81
2022-11-24T13:56:28.783Z,3.78
2022-11-24T13:59:01.572Z,3.75
2022-11-24T14:01:34.880Z,3.73
2022-11-24T14:04:32.839Z,3.71
2022-11-24T14:07:06.747Z,3.71
2022-11-24T14:09:46.425Z,3.72
2022-11-24T14:12:24.823Z,3.73
2022-11-24T14:14:57.257Z,3.71
2022-11-24T14:17:27.844Z,3.68
2022-11-24T14:20:02.184Z,3.67
2022-11-24T14:22:42.454Z,3.67
2022-11-24T14:25:29.841Z,3.66
2022-11-24T14:28:01.877Z,3.63
2022-11-24T14:30:30.315Z,3.57
2022-11-24T14:33:01.459Z,3.57
2022-11-24T14:35:35.247Z,3.56
2022-11-24T14:38:05.695Z,3.55
2022-11-24T14:40:47.396Z,3.56
2022-11-24T14:43:31.482Z,3.56
2022-11-24T14:46:07.305Z,3.56
2022-11-24T14:48:53.438Z,3.57
2022-11-24T14:51:25.954Z,3.57
2022-11-24T14:54:04.033Z,3.43
2022-11-24T14:56:40.408Z,3.59
2022-11-24T14:59:24.624Z,3.59
2022-11-24T15:01:53.349Z,3.61
2022-11-24T15:04:54.779Z,3.59
2022-11-24T15:07:23.359Z,3.59
2022-11-24T15:09:59.146Z,3.58
2022-11-24T15:12:39.584Z,3.59
2022-11-24T15:15:19.840Z,3.58
2022-11-24T15:17:53.692Z,3.58
2022-11-24T15:20:36.396Z,3.56
2022-11-24T15:23:23.189Z,3.56
2022-11-24T15:26:03.073Z,3.54
2022-11-24T15:28:32.117Z,3.53
2022-11-24T15:31:03.485Z,3.54
2022-11-24T15:33:31.839Z,3.55
2022-11-24T15:36:00.347Z,3.54
2022-11-24T15:38:28.409Z,3.56
2022-11-24T15:40:59.736Z,3.58
2022-11-24T15:43:40.263Z,3.61
2022-11-24T15:46:09.067Z,3.63
2022-11-24T15:48:36.983Z,3.62
2022-11-24T15:51:10.020Z,3.63
2022-11-24T15:53:54.534Z,3.65
2022-11-24T15:56:37.278Z,3.67
2022-11-24T15:59:04.995Z,3.68
2022-11-24T16:01:36.264Z,3.69
2022-11-24T16:04:04.297Z,3.69
2022-11-24T16:06:31.760Z,3.70
2022-11-24T16:08:59.829Z,3.70
2022-11-24T16:11:27.393Z,3.71
2022-11-24T16:13:55.175Z,3.71
2022-11-24T16:16:24.121Z,3.71
2022-11-24T16:18:52.303Z,3.71
2022-11-24T16:21:19.983Z,3.73
2022-11-24T16:23:48.350Z,3.70
2022-11-24T16:26:16.385Z,3.71
2022-11-24T16:28:45.275Z,3.71
2022-11-24T16:31:15.268Z,3.71
2022-11-24T16:33:48.348Z,3.70
2022-11-24T16:36:25.204Z,3.67
2022-11-24T16:38:53.352Z,3.66
2022-11-24T16:41:21.631Z,3.68
2022-11-24T16:43:49.963Z,3.68
2022-11-24T16:46:23.722Z,3.69
2022-11-24T16:48:59.060Z,3.69
2022-11-24T16:51:33.006Z,3.68
2022-11-24T16:54:00.982Z,3.68
2022-11-24T16:56:30.654Z,3.68
2022-11-24T16:58:58.656Z,3.69
2022-11-24T17:01:26.818Z,3.71
2022-11-24T17:03:57.723Z,3.70
2022-11-24T17:06:26.537Z,3.69
2022-11-24T17:08:55.377Z,3.70
2022-11-24T17:11:26.783Z,3.71
2022-11-24T17:13:57.897Z,3.74
2022-11-24T17:16:27.078Z,3.74
2022-11-24T17:18:57.641Z,3.74
2022-11-24T17:21:27.700Z,3.74
2022-11-24T17:24:01.919Z,3.76
2022-11-24T17:26:30.301Z,3.77
2022-11-24T17:29:02.773Z,3.77
2022-11-24T17:31:35.181Z,3.76
2022-11-24T17:34:06.645Z,3.76
2022-11-24T17:36:35.266Z,3.75
2022-11-24T17:39:05.357Z,3.73
2022-11-24T17:41:34.208Z,3.71
2022-11-24T17:44:03.920Z,3.69
2022-11-24T17:46:32.061Z,3.69
2022-11-24T17:49:00.904Z,3.69
2022-11-24T17:51:29.301Z,3.69
2022-11-24T17:53:57.392Z,3.68
2022-11-24T17:56:27.912Z,3.68
2022-11-24T17:58:59.193Z,3.68
2022-11-24T18:01:32.383Z,3.66
2022-11-24T18:04:00.373Z,3.66
2022-11-24T18:06:28.382Z,3.64
2022-11-24T18:08:57.711Z,3.63
2022-11-24T18:11:31.526Z,3.62
2022-11-24T18:14:02.437Z,3.62
2022-11-24T18:16:33.542Z,3.62
2022-11-24T18:19:08.693Z,3.59
2022-11-24T18:21:37.717Z,3.57
2022-11-24T18:24:07.076Z,3.55
2022-11-24T18:26:35.976Z,3.55
2022-11-24T18:29:05.106Z,3.56
2022-11-24T18:31:34.826Z,3.53
2022-11-24T18:34:05.249Z,3.54
2022-11-24T18:36:34.392Z,3.53
2022-11-24T18:39:04.498Z,3.52
2022-11-24T18:41:32.548Z,3.51
2022-11-24T18:44:02.624Z,3.51
2022-11-24T18:46:30.863Z,3.49
2022-11-24T18:48:59.287Z,3.48
2022-11-24T18:51:27.429Z,3.46
2022-11-24T18:53:57.618Z,3.43
2022-11-24T18:56:25.935Z,3.42
2022-11-24T18:58:55.297Z,3.42
2022-11-24T19:01:26.551Z,3.45
2022-11-24T19:03:57.222Z,3.46
2022-11-24T19:10:04.879Z,3.43
2022-11-24T19:12:37.326Z,3.43
2022-11-24T19:15:06.382Z,3.44
2022-11-24T19:17:37.876Z,3.46
2022-11-24T19:20:07.473Z,3.46
2022-11-24T19:22:41.543Z,3.46
2022-11-24T19:25:09.631Z,3.48
2022-11-24T19:27:38.056Z,3.51
2022-11-24T19:30:09.699Z,3.52
2022-11-24T19:32:40.209Z,3.55
2022-11-24T19:35:08.677Z,3.57
2022-11-24T19:37:37.129Z,3.61
2022-11-24T19:40:06.881Z,3.63
2022-11-24T19:42:34.798Z,3.66
2022-11-24T19:45:03.326Z,3.71
2022-11-24T19:47:34.066Z,3.74
2022-11-24T19:50:07.358Z,3.76
2022-11-24T19:52:31.931Z,3.77
2022-11-24T19:55:00.259Z,3.78
2022-11-24T19:57:28.186Z,3.80
2022-11-24T19:59:56.299Z,3.81
2022-11-24T20:02:24.986Z,3.81
2022-11-24T20:04:52.894Z,3.81
2022-11-24T20:07:20.731Z,3.83
2022-11-24T20:09:49.231Z,3.83
2022-11-24T20:12:17.322Z,3.83
2022-11-24T20:14:45.681Z,3.82
2022-11-24T20:17:16.612Z,3.81
2022-11-24T20:19:44.370Z,3.80
2022-11-24T20:22:15.309Z,3.78
2022-11-24T20:24:44.564Z,3.79
2022-11-24T20:27:15.592Z,3.79
2022-11-24T20:29:46.727Z,3.78
2022-11-24T20:32:15.198Z,3.78
2022-11-24T20:34:43.439Z,3.79
2022-11-24T20:37:13.094Z,3.79
2022-11-24T20:39:41.395Z,3.80
2022-11-24T20:42:09.444Z,3.80
2022-11-24T20:44:37.686Z,3.80
2022-11-24T20:47:06.764Z,3.81
2022-11-24T20:49:34.839Z,3.80
2022-11-24T20:52:02.929Z,3.83
2022-11-24T20:54:30.805Z,3.83
2022-11-24T20:56:58.576Z,3.82
2022-11-24T20:59:26.296Z,3.79
2022-11-24T21:01:54.987Z,3.79
2022-11-24T21:04:26.371Z,3.78
2022-11-24T21:06:54.444Z,3.77
2022-11-24T21:09:22.075Z,3.76
2022-11-24T21:11:49.808Z,3.77
2022-11-24T21:14:17.545Z,3.78
2022-11-24T21:16:45.531Z,3.76
2022-11-24T21:19:16.992Z,3.77
2022-11-24T21:21:46.652Z,3.75
2022-11-24T21:24:17.693Z,3.73
2022-11-24T21:26:51.115Z,3.69
2022-11-24T21:29:21.312Z,3.63
2022-11-24T21:31:49.340Z,3.57
2022-11-24T21:34:20.352Z,3.53
2022-11-24T21:36:48.298Z,3.52
2022-11-24T21:39:16.324Z,3.48
2022-11-24T21:41:44.446Z,3.47
2022-11-24T21:44:13.259Z,3.48
2022-11-24T21:46:46.174Z,3.48
2022-11-24T21:49:12.817Z,3.47
2022-11-24T21:51:41.022Z,3.49
2022-11-24T21:54:09.234Z,3.50
2022-11-24T21:56:37.285Z,3.53
2022-11-24T21:59:04.901Z,3.54
2022-11-24T22:01:32.312Z,3.55
2022-11-24T22:04:00.025Z,3.53
2022-11-24T22:06:27.758Z,3.52
2022-11-24T22:08:55.405Z,3.53
2022-11-24T22:11:24.856Z,3.54
2022-11-24T22:13:53.320Z,3.55
2022-11-24T22:16:24.177Z,3.58
2022-11-24T22:18:52.553Z,3.61
2022-11-24T22:21:23.557Z,3.61
2022-11-24T22:23:52.316Z,3.64
2022-11-24T22:26:22.726Z,3.64
2022-11-24T22:28:50.961Z,3.66
2022-11-24T22:31:27.364Z,3.68
2022-11-24T22:33:56.641Z,3.69
2022-11-24T22:36:26.850Z,3.68
2022-11-24T22:39:02.694Z,3.67
2022-11-24T22:41:35.104Z,3.64
2022-11-24T22:44:03.671Z,3.63
2022-11-24T22:46:32.191Z,3.64
2022-11-24T22:49:01.385Z,3.66
2022-11-24T22:51:33.473Z,3.64
2022-11-24T22:54:03.546Z,3.64
2022-11-24T22:56:33.229Z,3.64
2022-11-24T22:59:02.425Z,3.62
2022-11-24T23:01:31.583Z,3.63
2022-11-24T23:04:00.596Z,3.64
2022-11-24T23:06:31.049Z,3.63
2022-11-24T23:09:00.548Z,3.63
2022-11-24T23:11:38.576Z,3.64
2022-11-24T23:14:12.234Z,3.65
2022-11-24T23:16:40.434Z,3.66
2022-11-24T23:19:08.772Z,3.65
2022-11-24T23:21:37.922Z,3.65
2022-11-24T23:24:07.036Z,3.65
2022-11-24T23:26:39.077Z,3.67
2022-11-24T23:29:07.745Z,3.67
2022-11-24T23:31:37.705Z,3.69
2022-11-24T23:34:05.601Z,3.71
2022-11-24T23:36:33.480Z,3.75
2022-11-24T23:39:05.908Z,3.77
2022-11-24T23:41:34.415Z,3.79
2022-11-24T23:44:01.974Z,3.67
2022-11-24T23:46:30.268Z,3.80
2022-11-24T23:48:58.574Z,3.80
2022-11-24T23:51:32.045Z,3.81
2022-11-24T23:54:00.308Z,3.82
2022-11-24T23:56:32.669Z,3.81
2022-11-24T23:59:02.621Z,3.82
